sensor_id;sensor_type;location;lat;lon;timestamp;pressure;altitude;pressure_sealevel;temperature;humidity
10348;BME280;5220;43.192;23.284;2023-06-14T00:00:45;96680.09;;;18.16;100.00
10348;BME280;5220;43.192;23.284;2023-06-14T00:03:14;96678.28;;;18.17;100.00
10348;BME280;5220;43.192;23.284;2023-06-14T00:05:43;96674.00;;;18.16;100.00
10348;BME280;5220;43.192;23.284;2023-06-14T00:08:11;96678.09;;;18.18;100.00
10348;BME280;5220;43.192;23.284;2023-06-14T00:10:38;96673.19;;;18.15;100.00
10348;BME280;5220;43.192;23.284;2023-06-14T00:13:08;96676.63;;;18.16;100.00
10348;BME280;5220;43.192;23.284;2023-06-14T00:15:35;96673.84;;;18.17;100.00
10348;BME280;5220;43.192;23.284;2023-06-14T00:18:03;96667.91;;;18.15;100.00
10348;BME280;5220;43.192;23.284;2023-06-14T00:20:32;96674.84;;;18.16;100.00
10348;BME280;5220;43.192;23.284;2023-06-14T00:22:59;96664.16;;;18.18;100.00
10348;BME280;5220;43.192;23.284;2023-06-14T00:25:26;96668.41;;;18.19;100.00
10348;BME280;5220;43.192;23.284;2023-06-14T00:27:53;96666.44;;;18.21;100.00
10348;BME280;5220;43.192;23.284;2023-06-14T00:30:21;96662.81;;;18.22;100.00
10348;BME280;5220;43.192;23.284;2023-06-14T00:32:47;96663.47;;;18.24;100.00
10348;BME280;5220;43.192;23.284;2023-06-14T00:35:14;96671.38;;;18.24;100.00
10348;BME280;5220;43.192;23.284;2023-06-14T00:37:41;96663.81;;;18.21;100.00
10348;BME280;5220;43.192;23.284;2023-06-14T00:40:08;96667.09;;;18.23;100.00
10348;BME280;5220;43.192;23.284;2023-06-14T00:42:35;96661.81;;;18.23;100.00
10348;BME280;5220;43.192;23.284;2023-06-14T00:45:02;96657.38;;;18.23;100.00
10348;BME280;5220;43.192;23.284;2023-06-14T00:47:30;96658.03;;;18.25;100.00
10348;BME280;5220;43.192;23.284;2023-06-14T00:49:57;96649.50;;;18.23;100.00
10348;BME280;5220;43.192;23.284;2023-06-14T00:52:25;96653.59;;;18.26;100.00
10348;BME280;5220;43.192;23.284;2023-06-14T00:54:52;96659.88;;;18.09;100.00
10348;BME280;5220;43.192;23.284;2023-06-14T00:57:19;96652.13;;;18.15;100.00
10348;BME280;5220;43.192;23.284;2023-06-14T00:59:48;96651.13;;;18.16;100.00
10348;BME280;5220;43.192;23.284;2023-06-14T01:02:15;96650.81;;;18.19;100.00
10348;BME280;5220;43.192;23.284;2023-06-14T01:04:45;96657.72;;;18.20;100.00
10348;BME280;5220;43.192;23.284;2023-06-14T01:07:20;96651.78;;;18.18;100.00
10348;BME280;5220;43.192;23.284;2023-06-14T01:10:00;96661.34;;;18.19;100.00
10348;BME280;5220;43.192;23.284;2023-06-14T01:12:35;96658.88;;;18.18;100.00
10348;BME280;5220;43.192;23.284;2023-06-14T01:15:04;96653.78;;;18.16;100.00
10348;BME280;5220;43.192;23.284;2023-06-14T01:17:31;96653.78;;;18.16;100.00
10348;BME280;5220;43.192;23.284;2023-06-14T01:20:01;96653.44;;;18.19;100.00
10348;BME280;5220;43.192;23.284;2023-06-14T01:22:28;96645.88;;;18.16;100.00
10348;BME280;5220;43.192;23.284;2023-06-14T01:24:56;96648.81;;;18.21;100.00
10348;BME280;5220;43.192;23.284;2023-06-14T01:27:23;96651.28;;;18.23;100.00
10348;BME280;5220;43.192;23.284;2023-06-14T01:29:54;96655.75;;;18.22;100.00
10348;BME280;5220;43.192;23.284;2023-06-14T01:32:23;96652.94;;;18.24;100.00
10348;BME280;5220;43.192;23.284;2023-06-14T01:34:51;96665.78;;;18.27;100.00
10348;BME280;5220;43.192;23.284;2023-06-14T01:37:18;96665.59;;;18.28;100.00
10348;BME280;5220;43.192;23.284;2023-06-14T01:39:47;96664.63;;;18.30;100.00
10348;BME280;5220;43.192;23.284;2023-06-14T01:42:16;96662.00;;;18.30;100.00
10348;BME280;5220;43.192;23.284;2023-06-14T01:44:44;96662.00;;;18.30;100.00
10348;BME280;5220;43.192;23.284;2023-06-14T01:47:11;96663.97;;;18.27;100.00
10348;BME280;5220;43.192;23.284;2023-06-14T01:49:39;96656.09;;;18.27;100.00
10348;BME280;5220;43.192;23.284;2023-06-14T01:52:06;96671.88;;;18.27;100.00
10348;BME280;5220;43.192;23.284;2023-06-14T01:54:35;96673.00;;;18.25;100.00
10348;BME280;5220;43.192;23.284;2023-06-14T01:57:03;96672.19;;;18.24;100.00
10348;BME280;5220;43.192;23.284;2023-06-14T01:59:34;96675.00;;;18.23;100.00
10348;BME280;5220;43.192;23.284;2023-06-14T02:02:02;96673.34;;;18.22;100.00
10348;BME280;5220;43.192;23.284;2023-06-14T02:04:29;96672.84;;;18.18;100.00
10348;BME280;5220;43.192;23.284;2023-06-14T02:06:56;96680.59;;;18.20;100.00
10348;BME280;5220;43.192;23.284;2023-06-14T02:09:22;96678.94;;;18.19;100.00
10348;BME280;5220;43.192;23.284;2023-06-14T02:11:50;96682.09;;;18.14;100.00
10348;BME280;5220;43.192;23.284;2023-06-14T02:14:17;96686.53;;;18.14;100.00
10348;BME280;5220;43.192;23.284;2023-06-14T02:16:45;96682.75;;;18.08;100.00
10348;BME280;5220;43.192;23.284;2023-06-14T02:19:14;96681.75;;;18.09;100.00
10348;BME280;5220;43.192;23.284;2023-06-14T02:21:41;96683.25;;;18.12;100.00
10348;BME280;5220;43.192;23.284;2023-06-14T02:24:08;96676.31;;;18.11;100.00
10348;BME280;5220;43.192;23.284;2023-06-14T02:26:35;96673.50;;;18.12;100.00
10348;BME280;5220;43.192;23.284;2023-06-14T02:29:03;96671.56;;;18.14;100.00
10348;BME280;5220;43.192;23.284;2023-06-14T02:31:30;96671.88;;;18.11;100.00
10348;BME280;5220;43.192;23.284;2023-06-14T02:33:59;96675.50;;;18.10;100.00
10348;BME280;5220;43.192;23.284;2023-06-14T02:36:25;96664.31;;;18.08;100.00
10348;BME280;5220;43.192;23.284;2023-06-14T02:38:52;96662.66;;;18.07;100.00
10348;BME280;5220;43.192;23.284;2023-06-14T02:41:19;96658.69;;;18.03;100.00
10348;BME280;5220;43.192;23.284;2023-06-14T02:43:46;96656.75;;;18.05;100.00
10348;BME280;5220;43.192;23.284;2023-06-14T02:46:12;96656.75;;;18.05;100.00
10348;BME280;5220;43.192;23.284;2023-06-14T02:48:40;96649.84;;;18.04;100.00
10348;BME280;5220;43.192;23.284;2023-06-14T02:51:08;96656.06;;;18.03;100.00
10348;BME280;5220;43.192;23.284;2023-06-14T02:53:35;96657.88;;;18.03;100.00
10348;BME280;5220;43.192;23.284;2023-06-14T02:56:02;96660.69;;;18.01;100.00
10348;BME280;5220;43.192;23.284;2023-06-14T02:58:29;96663.00;;;17.96;100.00
10348;BME280;5220;43.192;23.284;2023-06-14T03:00:56;96670.41;;;18.01;100.00
10348;BME280;5220;43.192;23.284;2023-06-14T03:03:22;96670.25;;;18.02;100.00
10348;BME280;5220;43.192;23.284;2023-06-14T03:05:50;96672.06;;;18.02;100.00
10348;BME280;5220;43.192;23.284;2023-06-14T03:08:18;96673.22;;;17.99;100.00
10348;BME280;5220;43.192;23.284;2023-06-14T03:10:46;96674.00;;;18.00;100.00
10348;BME280;5220;43.192;23.284;2023-06-14T03:13:13;96676.47;;;18.01;100.00
10348;BME280;5220;43.192;23.284;2023-06-14T03:15:41;96679.44;;;17.98;100.00
10348;BME280;5220;43.192;23.284;2023-06-14T03:18:08;96688.00;;;18.00;100.00
10348;BME280;5220;43.192;23.284;2023-06-14T03:20:35;96675.84;;;17.99;100.00
10348;BME280;5220;43.192;23.284;2023-06-14T03:23:02;96682.72;;;18.00;100.00
10348;BME280;5220;43.192;23.284;2023-06-14T03:25:31;96677.97;;;18.04;100.00
10348;BME280;5220;43.192;23.284;2023-06-14T03:27:58;96684.06;;;18.04;100.00
10348;BME280;5220;43.192;23.284;2023-06-14T03:30:25;96684.69;;;18.06;100.00
10348;BME280;5220;43.192;23.284;2023-06-14T03:32:52;96680.13;;;18.08;100.00
10348;BME280;5220;43.192;23.284;2023-06-14T03:35:20;96678.31;;;18.09;100.00
10348;BME280;5220;43.192;23.284;2023-06-14T03:37:47;96677.81;;;18.05;100.00
10348;BME280;5220;43.192;23.284;2023-06-14T03:40:16;96673.84;;;18.09;100.00
10348;BME280;5220;43.192;23.284;2023-06-14T03:42:44;96676.66;;;18.08;100.00
10348;BME280;5220;43.192;23.284;2023-06-14T03:45:11;96683.88;;;18.06;100.00
10348;BME280;5220;43.192;23.284;2023-06-14T03:47:37;96684.56;;;18.08;100.00
10348;BME280;5220;43.192;23.284;2023-06-14T03:50:05;96685.03;;;18.11;100.00
10348;BME280;5220;43.192;23.284;2023-06-14T03:52:32;96684.88;;;18.13;100.00
10348;BME280;5220;43.192;23.284;2023-06-14T03:54:59;96688.50;;;18.12;100.00
10348;BME280;5220;43.192;23.284;2023-06-14T03:57:25;96688.31;;;18.13;100.00
10348;BME280;5220;43.192;23.284;2023-06-14T03:59:54;96692.28;;;18.17;100.00
10348;BME280;5220;43.192;23.284;2023-06-14T04:02:20;96695.56;;;18.19;100.00
10348;BME280;5220;43.192;23.284;2023-06-14T04:04:47;96681.75;;;18.09;100.00
10348;BME280;5220;43.192;23.284;2023-06-14T04:07:15;96695.75;;;18.18;100.00
10348;BME280;5220;43.192;23.284;2023-06-14T04:09:44;96690.63;;;18.16;100.00
10348;BME280;5220;43.192;23.284;2023-06-14T04:12:11;96690.97;;;18.13;100.00
10348;BME280;5220;43.192;23.284;2023-06-14T04:14:38;96692.78;;;18.21;100.00
10348;BME280;5220;43.192;23.284;2023-06-14T04:17:07;96693.25;;;18.24;100.00
10348;BME280;5220;43.192;23.284;2023-06-14T04:19:33;96689.47;;;18.27;100.00
10348;BME280;5220;43.192;23.284;2023-06-14T04:22:01;96694.75;;;18.27;100.00
10348;BME280;5220;43.192;23.284;2023-06-14T04:24:28;96694.56;;;18.28;100.00
10348;BME280;5220;43.192;23.284;2023-06-14T04:26:58;96703.59;;;18.34;100.00
10348;BME280;5220;43.192;23.284;2023-06-14T04:29:26;96695.56;;;18.36;100.00
10348;BME280;5220;43.192;23.284;2023-06-14T04:31:55;96697.03;;;18.38;100.00
10348;BME280;5220;43.192;23.284;2023-06-14T04:34:25;96696.06;;;18.39;100.00
10348;BME280;5220;43.192;23.284;2023-06-14T04:36:55;96696.88;;;18.40;100.00
10348;BME280;5220;43.192;23.284;2023-06-14T04:39:22;96695.88;;;18.41;100.00
10348;BME280;5220;43.192;23.284;2023-06-14T04:41:49;96703.63;;;18.42;100.00
10348;BME280;5220;43.192;23.284;2023-06-14T04:44:18;96719.75;;;18.39;100.00
10348;BME280;5220;43.192;23.284;2023-06-14T04:46:45;96729.78;;;18.44;100.00
10348;BME280;5220;43.192;23.284;2023-06-14T04:49:12;96721.06;;;18.43;100.00
10348;BME280;5220;43.192;23.284;2023-06-14T04:51:42;96717.44;;;18.44;100.00
10348;BME280;5220;43.192;23.284;2023-06-14T04:54:09;96719.91;;;18.46;100.00
10348;BME280;5220;43.192;23.284;2023-06-14T04:56:39;96723.88;;;18.50;100.00
10348;BME280;5220;43.192;23.284;2023-06-14T04:59:06;96722.41;;;18.55;100.00
10348;BME280;5220;43.192;23.284;2023-06-14T05:01:33;96730.63;;;18.60;100.00
10348;BME280;5220;43.192;23.284;2023-06-14T05:04:00;96728.81;;;18.61;100.00
10348;BME280;5220;43.192;23.284;2023-06-14T05:06:29;96731.13;;;18.64;100.00
10348;BME280;5220;43.192;23.284;2023-06-14T05:08:58;96738.03;;;18.65;100.00
10348;BME280;5220;43.192;23.284;2023-06-14T05:11:25;96746.41;;;18.68;100.00
10348;BME280;5220;43.192;23.284;2023-06-14T05:13:52;96744.59;;;18.69;100.00
10348;BME280;5220;43.192;23.284;2023-06-14T05:16:19;96742.31;;;18.66;100.00
10348;BME280;5220;43.192;23.284;2023-06-14T05:18:48;96745.91;;;18.41;100.00
10348;BME280;5220;43.192;23.284;2023-06-14T05:21:15;96749.44;;;18.49;100.00
10348;BME280;5220;43.192;23.284;2023-06-14T05:23:42;96759.09;;;18.33;100.00
10348;BME280;5220;43.192;23.284;2023-06-14T05:26:11;96752.34;;;18.30;100.00
10348;BME280;5220;43.192;23.284;2023-06-14T05:28:37;96753.00;;;18.32;100.00
10348;BME280;5220;43.192;23.284;2023-06-14T05:31:04;96755.50;;;18.34;100.00
10348;BME280;5220;43.192;23.284;2023-06-14T05:33:31;96769.97;;;18.30;100.00
10348;BME280;5220;43.192;23.284;2023-06-14T05:35:58;96769.00;;;18.31;100.00
10348;BME280;5220;43.192;23.284;2023-06-14T05:38:24;96773.75;;;18.35;100.00
10348;BME280;5220;43.192;23.284;2023-06-14T05:40:51;96764.88;;;18.36;100.00
10348;BME280;5220;43.192;23.284;2023-06-14T05:43:20;96777.84;;;18.21;100.00
10348;BME280;5220;43.192;23.284;2023-06-14T05:45:47;96771.25;;;18.01;100.00
10348;BME280;5220;43.192;23.284;2023-06-14T05:48:14;96759.25;;;18.15;100.00
10348;BME280;5220;43.192;23.284;2023-06-14T05:50:40;96769.78;;;18.23;100.00
10348;BME280;5220;43.192;23.284;2023-06-14T05:53:07;96765.16;;;18.25;100.00
10348;BME280;5220;43.192;23.284;2023-06-14T05:55:34;96760.19;;;17.82;100.00
10348;BME280;5220;43.192;23.284;2023-06-14T05:58:00;96761.38;;;17.95;100.00
10348;BME280;5220;43.192;23.284;2023-06-14T06:00:28;96751.19;;;18.08;100.00
10348;BME280;5220;43.192;23.284;2023-06-14T06:02:55;96761.69;;;18.00;100.00
10348;BME280;5220;43.192;23.284;2023-06-14T06:05:23;96758.75;;;18.11;100.00
10348;BME280;5220;43.192;23.284;2023-06-14T06:07:50;96752.00;;;18.17;100.00
10348;BME280;5220;43.192;23.284;2023-06-14T06:10:17;96754.16;;;18.30;100.00
10348;BME280;5220;43.192;23.284;2023-06-14T06:12:43;96760.09;;;18.23;100.00
10348;BME280;5220;43.192;23.284;2023-06-14T06:15:10;96760.56;;;18.35;100.00
10348;BME280;5220;43.192;23.284;2023-06-14T06:17:39;96762.41;;;18.43;100.00
10348;BME280;5220;43.192;23.284;2023-06-14T06:20:06;96766.69;;;18.52;100.00
10348;BME280;5220;43.192;23.284;2023-06-14T06:22:35;96767.03;;;18.57;100.00
10348;BME280;5220;43.192;23.284;2023-06-14T06:25:01;96773.28;;;18.64;100.00
10348;BME280;5220;43.192;23.284;2023-06-14T06:27:28;96777.88;;;18.70;100.00
10348;BME280;5220;43.192;23.284;2023-06-14T06:29:55;96777.56;;;18.73;100.00
10348;BME280;5220;43.192;23.284;2023-06-14T06:32:22;96774.25;;;18.79;100.00
10348;BME280;5220;43.192;23.284;2023-06-14T06:34:50;96782.97;;;18.79;100.00
10348;BME280;5220;43.192;23.284;2023-06-14T06:37:17;96781.16;;;18.88;100.00
10348;BME280;5220;43.192;23.284;2023-06-14T06:39:43;96778.34;;;18.90;100.00
10348;BME280;5220;43.192;23.284;2023-06-14T06:42:12;96774.22;;;18.95;100.00
10348;BME280;5220;43.192;23.284;2023-06-14T06:44:38;96786.44;;;18.72;100.00
10348;BME280;5220;43.192;23.284;2023-06-14T06:47:05;96781.16;;;18.72;100.00
10348;BME280;5220;43.192;23.284;2023-06-14T06:49:32;96783.47;;;18.75;100.00
10348;BME280;5220;43.192;23.284;2023-06-14T06:52:01;96789.41;;;18.61;100.00
10348;BME280;5220;43.192;23.284;2023-06-14T06:54:28;96788.91;;;18.73;100.00
10348;BME280;5220;43.192;23.284;2023-06-14T06:56:55;96792.66;;;18.87;100.00
10348;BME280;5220;43.192;23.284;2023-06-14T06:59:22;96784.44;;;18.90;100.00
10348;BME280;5220;43.192;23.284;2023-06-14T07:01:49;96794.97;;;18.98;100.00
10348;BME280;5220;43.192;23.284;2023-06-14T07:04:16;96791.81;;;19.03;100.00
10348;BME280;5220;43.192;23.284;2023-06-14T07:06:43;96792.69;;;18.95;100.00
10348;BME280;5220;43.192;23.284;2023-06-14T07:09:12;96790.03;;;18.95;100.00
10348;BME280;5220;43.192;23.284;2023-06-14T07:11:40;96795.78;;;19.07;100.00
10348;BME280;5220;43.192;23.284;2023-06-14T07:14:06;96788.03;;;19.13;100.00
10348;BME280;5220;43.192;23.284;2023-06-14T07:16:33;96796.03;;;19.28;100.00
10348;BME280;5220;43.192;23.284;2023-06-14T07:19:01;96802.84;;;19.06;100.00
10348;BME280;5220;43.192;23.284;2023-06-14T07:21:28;96803.56;;;18.92;100.00
10348;BME280;5220;43.192;23.284;2023-06-14T07:23:55;96809.66;;;18.76;100.00
10348;BME280;5220;43.192;23.284;2023-06-14T07:26:23;96798.44;;;18.91;100.00
10348;BME280;5220;43.192;23.284;2023-06-14T07:28:51;96794.94;;;19.06;100.00
10348;BME280;5220;43.192;23.284;2023-06-14T07:31:18;96793.94;;;19.15;100.00
10348;BME280;5220;43.192;23.284;2023-06-14T07:33:45;96798.19;;;19.32;100.00
10348;BME280;5220;43.192;23.284;2023-06-14T07:36:12;96805.56;;;19.37;100.00
10348;BME280;5220;43.192;23.284;2023-06-14T07:38:38;96797.97;;;19.50;100.00
10348;BME280;5220;43.192;23.284;2023-06-14T07:41:05;96803.56;;;19.55;100.00
10348;BME280;5220;43.192;23.284;2023-06-14T07:43:34;96809.16;;;19.60;100.00
10348;BME280;5220;43.192;23.284;2023-06-14T07:46:00;96812.03;;;19.43;100.00
10348;BME280;5220;43.192;23.284;2023-06-14T07:48:27;96809.03;;;19.54;100.00
10348;BME280;5220;43.192;23.284;2023-06-14T07:50:54;96801.66;;;19.25;100.00
10348;BME280;5220;43.192;23.284;2023-06-14T07:53:21;96818.28;;;19.33;100.00
10348;BME280;5220;43.192;23.284;2023-06-14T07:55:48;96822.94;;;19.40;100.00
10348;BME280;5220;43.192;23.284;2023-06-14T07:58:15;96815.03;;;19.40;100.00
10348;BME280;5220;43.192;23.284;2023-06-14T08:00:44;96823.53;;;19.50;100.00
10348;BME280;5220;43.192;23.284;2023-06-14T08:03:11;96820.69;;;19.59;100.00
10348;BME280;5220;43.192;23.284;2023-06-14T08:05:38;96830.63;;;19.57;100.00
10348;BME280;5220;43.192;23.284;2023-06-14T08:08:05;96836.38;;;19.61;100.00
10348;BME280;5220;43.192;23.284;2023-06-14T08:10:31;96845.13;;;19.53;100.00
10348;BME280;5220;43.192;23.284;2023-06-14T08:12:58;96850.25;;;19.55;100.00
10348;BME280;5220;43.192;23.284;2023-06-14T08:15:25;96847.63;;;19.55;100.00
10348;BME280;5220;43.192;23.284;2023-06-14T08:17:53;96853.84;;;19.70;100.00
10348;BME280;5220;43.192;23.284;2023-06-14T08:20:20;96854.84;;;19.61;100.00
10348;BME280;5220;43.192;23.284;2023-06-14T08:22:47;96856.97;;;19.65;100.00
10348;BME280;5220;43.192;23.284;2023-06-14T08:25:13;96854.19;;;19.67;100.00
10348;BME280;5220;43.192;23.284;2023-06-14T08:27:40;96864.22;;;19.71;100.00
10348;BME280;5220;43.192;23.284;2023-06-14T08:30:08;96866.84;;;19.79;100.00
10348;BME280;5220;43.192;23.284;2023-06-14T08:32:35;96859.41;;;19.83;100.00
10348;BME280;5220;43.192;23.284;2023-06-14T08:35:04;96871.56;;;19.92;100.00
10348;BME280;5220;43.192;23.284;2023-06-14T08:37:31;96875.84;;;19.93;100.00
10348;BME280;5220;43.192;23.284;2023-06-14T08:39:58;96872.69;;;19.98;100.00
10348;BME280;5220;43.192;23.284;2023-06-14T08:42:25;96872.97;;;20.03;100.00
10348;BME280;5220;43.192;23.284;2023-06-14T08:44:52;96873.81;;;20.03;100.00
10348;BME280;5220;43.192;23.284;2023-06-14T08:47:19;96875.94;;;20.08;100.00
10348;BME280;5220;43.192;23.284;2023-06-14T08:49:46;96868.41;;;19.97;100.00
10348;BME280;5220;43.192;23.284;2023-06-14T08:52:17;96872.81;;;20.04;100.00
10348;BME280;5220;43.192;23.284;2023-06-14T08:54:46;96874.84;;;19.94;100.00
10348;BME280;5220;43.192;23.284;2023-06-14T08:57:14;96866.25;;;20.00;100.00
10348;BME280;5220;43.192;23.284;2023-06-14T08:59:46;96858.25;;;20.08;100.00
10348;BME280;5220;43.192;23.284;2023-06-14T09:02:14;96874.09;;;20.16;100.00
10348;BME280;5220;43.192;23.284;2023-06-14T09:04:43;96878.66;;;20.30;100.00
10348;BME280;5220;43.192;23.284;2023-06-14T09:07:10;96872.63;;;20.45;100.00
10348;BME280;5220;43.192;23.284;2023-06-14T09:09:42;96879.78;;;20.59;100.00
10348;BME280;5220;43.192;23.284;2023-06-14T09:12:10;96875.09;;;20.69;100.00
10348;BME280;5220;43.192;23.284;2023-06-14T09:14:38;96867.38;;;20.67;100.00
10348;BME280;5220;43.192;23.284;2023-06-14T09:17:07;96880.97;;;20.79;100.00
10348;BME280;5220;43.192;23.284;2023-06-14T09:19:34;96876.75;;;20.70;100.00
10348;BME280;5220;43.192;23.284;2023-06-14T09:22:02;96881.63;;;20.81;100.00
10348;BME280;5220;43.192;23.284;2023-06-14T09:24:29;96885.25;;;20.80;100.00
10348;BME280;5220;43.192;23.284;2023-06-14T09:26:57;96880.63;;;20.82;100.00
10348;BME280;5220;43.192;23.284;2023-06-14T09:29:24;96882.72;;;20.86;100.00
10348;BME280;5220;43.192;23.284;2023-06-14T09:31:52;96876.28;;;20.89;100.00
10348;BME280;5220;43.192;23.284;2023-06-14T09:34:18;96881.84;;;20.94;100.00
10348;BME280;5220;43.192;23.284;2023-06-14T09:36:49;96876.53;;;20.79;100.00
10348;BME280;5220;43.192;23.284;2023-06-14T09:39:17;96879.09;;;20.87;100.00
10348;BME280;5220;43.192;23.284;2023-06-14T09:41:44;96868.75;;;21.01;100.00
10348;BME280;5220;43.192;23.284;2023-06-14T09:44:12;96870.34;;;21.10;100.00
10348;BME280;5220;43.192;23.284;2023-06-14T09:46:39;96870.03;;;21.05;100.00
10348;BME280;5220;43.192;23.284;2023-06-14T09:49:06;96873.44;;;21.13;100.00
10348;BME280;5220;43.192;23.284;2023-06-14T09:51:35;96872.72;;;21.19;100.00
10348;BME280;5220;43.192;23.284;2023-06-14T09:54:03;96872.97;;;21.10;100.00
10348;BME280;5220;43.192;23.284;2023-06-14T09:56:31;96871.38;;;21.23;100.00
10348;BME280;5220;43.192;23.284;2023-06-14T09:58:59;96872.94;;;21.32;100.00
10348;BME280;5220;43.192;23.284;2023-06-14T10:01:30;96874.59;;;21.48;100.00
10348;BME280;5220;43.192;23.284;2023-06-14T10:04:02;96863.19;;;21.48;100.00
10348;BME280;5220;43.192;23.284;2023-06-14T10:06:29;96867.19;;;21.58;100.00
10348;BME280;5220;43.192;23.284;2023-06-14T10:08:58;96865.66;;;21.64;100.00
10348;BME280;5220;43.192;23.284;2023-06-14T10:11:26;96867.66;;;21.62;100.00
10348;BME280;5220;43.192;23.284;2023-06-14T10:13:53;96863.19;;;21.62;100.00
10348;BME280;5220;43.192;23.284;2023-06-14T10:16:27;96861.25;;;21.56;100.00
10348;BME280;5220;43.192;23.284;2023-06-14T10:19:05;96863.16;;;21.33;100.00
10348;BME280;5220;43.192;23.284;2023-06-14T10:21:40;96867.19;;;21.29;100.00
10348;BME280;5220;43.192;23.284;2023-06-14T10:24:10;96869.28;;;21.33;100.00
10348;BME280;5220;43.192;23.284;2023-06-14T10:26:50;96869.84;;;21.29;100.00
10348;BME280;5220;43.192;23.284;2023-06-14T10:29:18;96876.38;;;21.33;100.00
10348;BME280;5220;43.192;23.284;2023-06-14T10:31:45;96871.28;;;21.31;100.00
10348;BME280;5220;43.192;23.284;2023-06-14T10:34:21;96868.25;;;21.20;100.00
10348;BME280;5220;43.192;23.284;2023-06-14T10:37:01;96873.19;;;21.23;100.00
10348;BME280;5220;43.192;23.284;2023-06-14T10:39:28;96869.97;;;21.13;100.00
10348;BME280;5220;43.192;23.284;2023-06-14T10:41:56;96878.75;;;21.05;100.00
10348;BME280;5220;43.192;23.284;2023-06-14T10:44:40;96878.56;;;20.92;100.00
10348;BME280;5220;43.192;23.284;2023-06-14T10:47:08;96867.31;;;20.90;100.00
10348;BME280;5220;43.192;23.284;2023-06-14T10:49:40;96862.00;;;20.75;100.00
10348;BME280;5220;43.192;23.284;2023-06-14T10:52:08;96867.28;;;20.75;100.00
10348;BME280;5220;43.192;23.284;2023-06-14T10:54:56;96863.31;;;20.79;100.00
10348;BME280;5220;43.192;23.284;2023-06-14T10:57:23;96851.78;;;20.72;100.00
10348;BME280;5220;43.192;23.284;2023-06-14T10:59:50;96851.22;;;20.77;100.00
10348;BME280;5220;43.192;23.284;2023-06-14T11:02:34;96851.06;;;20.78;100.00
10348;BME280;5220;43.192;23.284;2023-06-14T11:05:14;96853.06;;;20.76;100.00
10348;BME280;5220;43.192;23.284;2023-06-14T11:07:48;96857.81;;;20.81;100.00
10348;BME280;5220;43.192;23.284;2023-06-14T11:10:28;96854.00;;;20.83;100.00
10348;BME280;5220;43.192;23.284;2023-06-14T11:13:00;96855.00;;;20.82;100.00
10348;BME280;5220;43.192;23.284;2023-06-14T11:15:28;96852.00;;;20.85;100.00
10348;BME280;5220;43.192;23.284;2023-06-14T11:17:55;96850.00;;;20.87;100.00
10348;BME280;5220;43.192;23.284;2023-06-14T11:20:26;96846.88;;;20.84;100.00
10348;BME280;5220;43.192;23.284;2023-06-14T11:22:53;96852.53;;;20.81;100.00
10348;BME280;5220;43.192;23.284;2023-06-14T11:25:20;96844.78;;;20.79;100.00
10348;BME280;5220;43.192;23.284;2023-06-14T11:27:49;96839.16;;;20.82;100.00
10348;BME280;5220;43.192;23.284;2023-06-14T11:30:17;96844.25;;;20.84;100.00
10348;BME280;5220;43.192;23.284;2023-06-14T11:32:46;96831.84;;;20.84;100.00
10348;BME280;5220;43.192;23.284;2023-06-14T11:35:14;96840.88;;;20.90;100.00
10348;BME280;5220;43.192;23.284;2023-06-14T11:37:42;96838.44;;;20.88;100.00
10348;BME280;5220;43.192;23.284;2023-06-14T11:40:10;96836.63;;;20.89;100.00
10348;BME280;5220;43.192;23.284;2023-06-14T11:42:38;96833.16;;;20.88;100.00
10348;BME280;5220;43.192;23.284;2023-06-14T11:45:08;96834.66;;;20.83;100.00
10348;BME280;5220;43.192;23.284;2023-06-14T11:47:36;96843.97;;;20.79;100.00
10348;BME280;5220;43.192;23.284;2023-06-14T11:50:04;96843.59;;;20.82;100.00
10348;BME280;5220;43.192;23.284;2023-06-14T11:52:31;96827.03;;;20.88;100.00
10348;BME280;5220;43.192;23.284;2023-06-14T11:54:59;96828.59;;;20.97;100.00
10348;BME280;5220;43.192;23.284;2023-06-14T11:57:26;96825.41;;;21.02;100.00
10348;BME280;5220;43.192;23.284;2023-06-14T11:59:55;96829.66;;;21.11;100.00
10348;BME280;5220;43.192;23.284;2023-06-14T12:02:21;96832.75;;;21.14;100.00
10348;BME280;5220;43.192;23.284;2023-06-14T12:04:51;96826.81;;;21.12;100.00
10348;BME280;5220;43.192;23.284;2023-06-14T12:07:18;96824.00;;;21.14;100.00
10348;BME280;5220;43.192;23.284;2023-06-14T12:10:08;96827.75;;;21.19;100.00
10348;BME280;5220;43.192;23.284;2023-06-14T12:12:36;96812.16;;;21.24;100.00
10348;BME280;5220;43.192;23.284;2023-06-14T12:15:04;96816.53;;;21.32;100.00
10348;BME280;5220;43.192;23.284;2023-06-14T12:17:32;96824.94;;;21.35;100.00
10348;BME280;5220;43.192;23.284;2023-06-14T12:20:05;96823.28;;;21.34;100.00
10348;BME280;5220;43.192;23.284;2023-06-14T12:22:34;96818.00;;;21.34;100.00
10348;BME280;5220;43.192;23.284;2023-06-14T12:25:00;96819.38;;;21.45;100.00
10348;BME280;5220;43.192;23.284;2023-06-14T12:27:31;96813.53;;;21.50;100.00
10348;BME280;5220;43.192;23.284;2023-06-14T12:29:59;96809.31;;;21.55;100.00
10348;BME280;5220;43.192;23.284;2023-06-14T12:32:26;96814.16;;;21.66;100.00
10348;BME280;5220;43.192;23.284;2023-06-14T12:34:53;96821.91;;;21.68;100.00
10348;BME280;5220;43.192;23.284;2023-06-14T12:37:20;96828.28;;;21.73;100.00
10348;BME280;5220;43.192;23.284;2023-06-14T12:39:47;96819.72;;;21.71;100.00
10348;BME280;5220;43.192;23.284;2023-06-14T12:42:14;96819.34;;;21.74;100.00
10348;BME280;5220;43.192;23.284;2023-06-14T12:44:42;96803.53;;;21.81;100.00
10348;BME280;5220;43.192;23.284;2023-06-14T12:47:09;96802.19;;;21.85;100.00
10348;BME280;5220;43.192;23.284;2023-06-14T12:49:37;96799.31;;;21.86;100.00
10348;BME280;5220;43.192;23.284;2023-06-14T12:52:04;96797.63;;;21.93;100.00
10348;BME280;5220;43.192;23.284;2023-06-14T12:54:31;96800.88;;;21.95;100.00